Time;durP1;ratioP1;P1;durP2;ratioP2;P2;SDS_P1;SDS_P2;PMS_P1;PMS_P2;Temp;Humidity;BMP_temperature;BMP_pressure;BME280_temperature;BME280_humidity;BME280_pressure;Samples;Min_cycle;Max_cycle;Signal;HPM_P1;HPM_P2
2022/01/27 00:04:22;;;;;;;4.95;3.15;;;;;;;14.23;60.24;101929.56;20903670;28;20581;-78
2022/01/27 00:14:25;;;;;;;4.78;3.55;;;;;;;14.10;60.54;101903.50;20899540;28;20057;-77
2022/01/27 00:24:26;;;;;;;5.78;3.42;;;;;;;14.18;60.42;101908.44;20900242;28;20080;-77
2022/01/27 00:34:28;;;;;;;5.82;2.97;;;;;;;14.21;60.59;101894.84;20917301;28;20059;-78
2022/01/27 00:44:30;;;;;;;3.53;2.72;;;;;;;14.58;60.71;101970.44;20916449;28;20102;-77
2022/01/27 00:54:32;;;;;;;4.43;3.45;;;;;;;14.57;60.43;101931.16;20916025;28;20052;-78
2022/01/27 01:04:38;;;;;;;3.60;2.67;;;;;;;14.43;60.64;101888.25;20897473;28;20057;-78
2022/01/27 01:14:47;;;;;;;3.72;2.80;;;;;;;14.16;60.59;101820.13;20896962;28;20127;-78
2022/01/27 01:35:11;;;;;;;3.83;2.72;;;;;;;14.59;60.95;101886.41;20897320;28;20532;-78
2022/01/27 01:45:17;;;;;;;4.03;2.75;;;;;;;14.50;60.91;101852.09;20911474;28;20508;-78
2022/01/27 01:55:18;;;;;;;;;;;;;;;14.59;60.54;101854.25;20893701;28;20041;-78
2022/01/27 02:05:26;;;;;;;3.58;2.50;;;;;;;14.55;61.01;101828.56;20892248;28;20393;-78
2022/01/27 02:25:48;;;;;;;3.28;2.30;;;;;;;14.45;60.86;101779.16;20908685;28;20171;-78
2022/01/27 02:35:50;;;;;;;3.72;2.33;;;;;;;14.60;60.64;101812.22;20890191;28;20057;-77
2022/01/27 02:45:52;;;;;;;5.18;2.90;;;;;;;14.59;60.65;101781.91;20889457;28;20477;-78
2022/01/27 02:55:54;;;;;;;3.78;2.92;;;;;;;14.27;60.55;101711.50;20906260;28;20056;-78
2022/01/27 03:05:56;;;;;;;4.20;2.42;;;;;;;14.56;61.00;101755.25;20905900;28;20047;-78
2022/01/27 03:15:58;;;;;;;4.53;2.58;;;;;;;14.21;60.48;101669.88;20887509;28;20061;-78
2022/01/27 03:25:59;;;;;;;3.05;2.58;;;;;;;14.15;60.42;101654.19;20905006;28;20509;-78
2022/01/27 03:36:01;;;;;;;3.58;2.78;;;;;;;14.53;60.87;101712.56;20887098;28;20410;-79
2022/01/27 03:46:04;;;;;;;3.47;2.60;;;;;;;14.17;60.72;101641.56;20894860;28;20425;-79
2022/01/27 03:56:07;;;;;;;3.50;2.75;;;;;;;14.53;60.47;101679.56;20885969;28;20071;-78
2022/01/27 04:06:10;;;;;;;3.63;2.60;;;;;;;14.48;60.73;101671.81;20902090;28;20387;-78
2022/01/27 04:16:11;;;;;;;3.72;2.30;;;;;;;14.41;60.54;101635.66;20947844;28;20048;-79
2022/01/27 04:26:23;;;;;;;4.00;2.95;;;;;;;14.53;60.66;101648.25;20966211;28;20048;-78
2022/01/27 04:36:29;;;;;;;3.67;2.85;;;;;;;14.47;60.43;101635.25;20999613;28;20512;-78
2022/01/27 04:46:57;;;;;;;4.30;2.90;;;;;;;14.43;60.41;101634.59;20981587;28;20110;-78
2022/01/27 04:57:00;;;;;;;3.55;2.50;;;;;;;14.21;60.55;101563.59;20979782;28;20052;-78
2022/01/27 05:07:02;;;;;;;4.03;2.60;;;;;;;14.46;60.64;101580.81;20997238;28;20063;-79
2022/01/27 05:17:04;;;;;;;4.22;2.70;;;;;;;14.46;60.54;101545.13;20996233;28;20731;-78
2022/01/27 05:27:06;;;;;;;4.22;2.85;;;;;;;14.56;60.26;101516.78;20995590;28;20040;-78
2022/01/27 05:37:08;;;;;;;4.70;2.67;;;;;;;15.19;60.05;101589.59;20977029;28;20054;-78
2022/01/27 05:47:14;;;;;;;2.35;2.08;;;;;;;15.02;59.59;101538.88;20976584;28;20204;-78
2022/01/27 05:57:22;;;;;;;3.85;2.70;;;;;;;15.25;59.17;101558.84;20976266;28;20067;-78
2022/01/27 06:07:30;;;;;;;4.25;2.78;;;;;;;15.35;59.05;101570.66;20958604;28;20090;-79
2022/01/27 06:17:32;;;;;;;5.03;2.70;;;;;;;15.48;59.16;101576.06;20991186;28;20490;-79
2022/01/27 06:27:35;;;;;;;4.22;3.05;;;;;;;15.53;59.07;101573.06;20990761;28;20051;-78
2022/01/27 06:37:39;;;;;;;3.55;2.08;;;;;;;15.48;58.99;101538.50;20990527;28;20117;-81
2022/01/27 06:47:41;;;;;;;4.20;2.33;;;;;;;15.14;58.89;101476.41;20971914;28;20044;-80
2022/01/27 06:57:44;;;;;;;4.72;2.60;;;;;;;15.52;59.10;101537.31;20989363;28;20059;-81
2022/01/27 07:07:46;;;;;;;5.90;2.60;;;;;;;15.34;58.95;101538.56;20988644;28;20037;-83
2022/01/27 07:17:48;;;;;;;3.30;1.90;;;;;;;15.12;59.06;101488.19;20940496;28;20048;-81
2022/01/27 07:27:51;;;;;;;4.03;2.10;;;;;;;15.04;58.82;101469.94;20987157;28;20044;-83
2022/01/27 07:37:54;;;;;;;3.05;2.22;;;;;;;15.48;59.10;101535.81;20970229;28;20512;-84
2022/01/27 07:47:57;;;;;;;3.28;2.10;;;;;;;14.49;59.02;101390.41;20953191;28;20048;-81
2022/01/27 07:57:59;;;;;;;2.47;1.83;;;;;;;15.56;59.01;101534.41;20985049;28;20076;-81
2022/01/27 08:08:01;;;;;;;4.07;1.80;;;;;;;15.37;58.81;101503.47;20984088;28;20076;-81
2022/01/27 08:18:04;;;;;;;2.83;1.60;;;;;;;15.16;59.08;101463.75;20966999;28;20072;-85
2022/01/27 08:28:15;;;;;;;2.45;1.60;;;;;;;15.54;58.84;101507.69;20981352;28;20053;-80
2022/01/27 08:38:17;;;;;;;2.28;1.40;;;;;;;15.49;58.75;101491.91;20999569;28;20505;-81
2022/01/27 08:48:21;;;;;;;2.22;1.50;;;;;;;15.57;59.05;101495.88;20964975;28;20045;-80
2022/01/27 08:58:25;;;;;;;3.95;1.75;;;;;;;15.68;58.92;101512.09;20980758;28;20044;-80
2022/01/27 09:08:27;;;;;;;4.07;1.60;;;;;;;15.73;58.87;101503.72;20997319;28;20374;-80
2022/01/27 09:18:29;;;;;;;2.47;1.58;;;;;;;15.74;59.08;101508.13;20996550;28;20059;-79
2022/01/27 09:28:31;;;;;;;2.95;1.70;;;;;;;15.75;59.05;101518.75;20995165;28;20040;-79
2022/01/27 09:38:33;;;;;;;2.80;1.65;;;;;;;15.61;58.80;101497.38;20976402;28;20070;-80
2022/01/27 09:48:44;;;;;;;3.28;1.65;;;;;;;15.43;58.81;101465.47;20976267;28;20048;-80
2022/01/27 09:58:46;;;;;;;3.13;1.73;;;;;;;15.66;59.05;101525.59;20975911;28;20048;-80
2022/01/27 10:09:25;;;;;;;2.90;1.48;;;;;;;15.52;58.57;101494.38;20974467;28;20174;-80
2022/01/27 10:19:28;;;;;;;3.45;1.27;;;;;;;15.79;59.10;101547.09;20973561;28;20076;-81
2022/01/27 10:29:48;;;;;;;2.42;1.25;;;;;;;15.66;58.92;101514.88;20972478;28;20123;-79
2022/01/27 10:39:50;;;;;;;2.05;1.30;;;;;;;15.47;59.08;101482.22;20957186;28;20079;-79
2022/01/27 10:50:04;;;;;;;3.53;1.30;;;;;;;15.83;58.86;101557.63;20971997;28;20048;-79
2022/01/27 11:00:15;;;;;;;2.43;1.27;;;;;;;15.73;59.39;101528.72;20971240;28;20131;-78
2022/01/27 11:10:19;;;;;;;2.92;1.27;;;;;;;15.80;59.33;101540.75;20989223;28;20040;-78
2022/01/27 11:30:56;;;;;;;1.90;1.00;;;;;;;15.59;59.45;101485.91;20987664;28;20047;-78
2022/01/27 11:40:58;;;;;;;2.20;1.35;;;;;;;15.85;59.45;101529.72;20971156;28;20045;-79
2022/01/27 11:51:03;;;;;;;2.30;0.95;;;;;;;15.86;59.12;101542.16;20969175;28;20049;-79
2022/01/27 12:01:11;;;;;;;2.87;1.40;;;;;;;15.86;59.24;101538.59;20986635;28;20052;-80
2022/01/27 12:11:46;;;;;;;1.80;1.20;;;;;;;15.87;59.31;101527.78;20966023;28;20401;-79
2022/01/27 12:21:51;;;;;;;3.10;1.20;;;;;;;15.89;59.43;101522.31;20982786;28;20061;-79
2022/01/27 12:31:54;;;;;;;2.10;1.40;;;;;;;15.56;59.58;101468.16;20982417;28;20048;-80
2022/01/27 12:41:58;;;;;;;2.38;1.02;;;;;;;15.91;59.43;101520.41;20981669;28;20044;-79
2022/01/27 12:52:01;;;;;;;2.00;1.02;;;;;;;15.88;59.54;101513.41;21003155;28;20068;-79
2022/01/27 13:02:05;;;;;;;2.25;1.13;;;;;;;15.89;59.65;101495.47;20980201;28;20053;-79
2022/01/27 13:12:15;;;;;;;2.58;1.20;;;;;;;15.88;59.40;101502.69;20980838;28;20159;-79
2022/01/27 13:22:26;;;;;;;2.58;0.98;;;;;;;15.91;59.39;101497.09;20960795;28;20127;-79
2022/01/27 13:32:28;;;;;;;2.33;0.98;;;;;;;15.63;59.29;101465.94;20995847;28;20054;-86
2022/01/27 13:42:31;;;;;;;2.20;1.13;;;;;;;15.95;59.49;101521.91;20960519;28;20044;-78
2022/01/27 13:52:59;;;;;;;2.85;1.10;;;;;;;15.97;59.58;101519.97;20976369;28;20052;-79
2022/01/27 14:03:12;;;;;;;1.70;0.93;;;;;;;15.89;59.71;101522.31;20971762;28;20049;-79
2022/01/27 14:13:23;;;;;;;2.85;1.00;;;;;;;15.92;59.23;101535.56;20974887;28;20044;-79
2022/01/27 14:33:54;;;;;;;4.13;1.15;;;;;;;15.93;59.46;101556.91;20990639;28;20056;-79
2022/01/27 14:43:56;;;;;;;4.80;1.90;;;;;;;16.04;59.46;101583.03;20956351;28;20470;-79
2022/01/27 14:53:58;;;;;;;1.98;0.73;;;;;;;16.06;59.58;101580.22;20991199;28;20072;-79
2022/01/27 15:04:01;;;;;;;2.47;0.90;;;;;;;15.70;59.48;101563.84;20989003;28;20573;-79
2022/01/27 15:18:48;;;;;;;4.22;1.25;;;;;;;15.61;59.71;101546.53;20954392;28;20477;-79
2022/01/27 15:24:25;;;;;;;2.88;1.02;;;;;;;16.05;59.72;101633.09;20972958;28;20052;-79
2022/01/27 15:34:27;;;;;;;3.92;1.13;;;;;;;16.06;59.76;101634.81;20987910;28;20383;-79
2022/01/27 15:44:34;;;;;;;3.33;1.13;;;;;;;15.71;59.65;101579.00;20981729;28;20749;-79
2022/01/27 15:54:37;;;;;;;2.95;1.00;;;;;;;15.76;59.64;101590.25;21003197;28;20048;-79
2022/01/27 16:04:39;;;;;;;2.90;0.88;;;;;;;15.85;59.54;101630.88;20984555;28;20075;-79
2022/01/27 16:14:41;;;;;;;2.88;1.20;;;;;;;16.07;59.56;101660.69;20975597;28;20054;-79
2022/01/27 16:24:44;;;;;;;4.25;1.52;;;;;;;15.94;59.52;101654.47;20982890;28;20048;-78
2022/01/27 16:34:46;;;;;;;3.20;0.90;;;;;;;16.02;59.50;101680.78;21067853;22;20057;-79
2022/01/27 16:45:01;;;;;;;4.35;1.13;;;;;;;15.58;59.76;101602.28;21095660;22;20485;-77
2022/01/27 16:55:03;;;;;;;3.70;1.15;;;;;;;16.10;59.25;101697.22;21230833;22;20080;-77
2022/01/27 17:05:06;;;;;;;1.90;0.85;;;;;;;15.96;59.31;101698.19;20980116;28;20139;-77
2022/01/27 17:15:09;;;;;;;2.53;0.88;;;;;;;15.75;59.42;101673.59;20997217;28;20482;-77
2022/01/27 17:25:12;;;;;;;3.60;1.23;;;;;;;15.47;59.49;101621.78;20979245;28;20127;-77
2022/01/27 17:35:15;;;;;;;5.05;1.50;;;;;;;16.01;59.23;101722.91;20995319;28;20055;-77
2022/01/27 17:45:18;;;;;;;3.42;1.00;;;;;;;16.02;59.43;101750.59;20961232;28;20044;-80
2022/01/27 17:55:20;;;;;;;2.58;1.25;;;;;;;15.78;59.66;101730.63;20975678;28;20126;-78
2022/01/27 18:05:22;;;;;;;5.05;1.13;;;;;;;16.13;59.28;101792.88;20974354;28;20040;-78
2022/01/27 18:15:25;;;;;;;2.35;0.90;;;;;;;15.79;58.91;101735.03;20974308;28;20055;-78
2022/01/27 18:25:26;;;;;;;2.25;0.90;;;;;;;16.04;59.35;101779.09;20973108;28;20045;-80
2022/01/27 18:35:38;;;;;;;3.13;1.40;;;;;;;15.50;59.38;101715.50;20957727;28;20052;-80
2022/01/27 18:45:41;;;;;;;2.53;0.90;;;;;;;15.92;59.24;101793.34;20989911;28;20037;-80
2022/01/27 18:55:44;;;;;;;4.15;1.30;;;;;;;15.77;59.35;101785.28;20989373;28;20060;-79
2022/01/27 19:05:46;;;;;;;3.38;1.13;;;;;;;16.11;59.00;101861.94;20971092;28;20480;-79
2022/01/27 19:15:48;;;;;;;2.65;0.80;;;;;;;15.76;59.04;101815.78;20954132;28;20524;-79
2022/01/27 19:25:54;;;;;;;3.22;1.17;;;;;;;16.01;59.05;101876.00;20970301;28;20051;-79
2022/01/27 19:35:56;;;;;;;2.35;1.00;;;;;;;16.03;58.64;101900.06;20987882;28;20047;-79
2022/01/27 19:45:57;;;;;;;2.30;0.90;;;;;;;15.75;58.74;101862.38;20952865;28;20056;-79
2022/01/27 19:55:59;;;;;;;3.33;1.50;;;;;;;15.89;58.95;101917.94;20969011;28;20057;-79
2022/01/27 20:06:03;;;;;;;2.10;0.80;;;;;;;15.19;59.06;101839.06;20968724;28;20140;-79
2022/01/27 20:16:06;;;;;;;2.08;0.80;;;;;;;15.40;59.57;101895.00;20968642;28;20099;-78
2022/01/27 20:26:08;;;;;;;3.22;1.10;;;;;;;15.50;59.53;101917.66;20990117;28;20110;-79
2022/01/27 20:36:11;;;;;;;3.40;0.93;;;;;;;15.49;59.46;101952.63;20966209;28;20052;-78
2022/01/27 20:46:14;;;;;;;1.83;0.77;;;;;;;15.54;59.80;101971.13;20999195;28;20048;-79
2022/01/27 20:56:19;;;;;;;3.20;1.20;;;;;;;15.36;59.67;101968.59;20998137;28;20049;-79
2022/01/27 21:06:21;;;;;;;3.03;0.90;;;;;;;15.43;59.68;102002.16;20980111;28;20090;-78
2022/01/27 21:16:23;;;;;;;3.50;0.90;;;;;;;15.30;59.78;101996.69;20997046;28;20050;-78
2022/01/27 21:26:25;;;;;;;2.53;0.70;;;;;;;15.32;59.52;102021.59;20996296;28;20049;-78
2022/01/27 21:36:27;;;;;;;2.08;0.98;;;;;;;14.96;59.48;101992.44;20976869;28;20068;-78
2022/01/27 21:46:29;;;;;;;2.58;0.85;;;;;;;15.25;59.33;102059.59;20976691;28;20071;-78
2022/01/27 21:56:49;;;;;;;2.72;0.95;;;;;;;14.79;58.93;101991.63;20962242;28;20056;-79
2022/01/27 22:06:51;;;;;;;3.78;0.90;;;;;;;15.11;58.95;102047.00;20958641;28;20477;-78
2022/01/27 22:16:53;;;;;;;5.43;1.13;;;;;;;15.06;59.46;102058.00;20974130;28;20084;-78
2022/01/27 22:26:55;;;;;;;2.72;1.00;;;;;;;15.06;59.31;102090.19;20973666;28;20052;-79
2022/01/27 22:36:59;;;;;;;4.18;0.90;;;;;;;14.88;58.90;102103.69;20956355;28;20340;-79
2022/01/27 22:47:01;;;;;;;3.28;0.98;;;;;;;14.94;59.40;102118.56;20955348;28;20041;-78
2022/01/27 22:57:04;;;;;;;3.22;0.88;;;;;;;14.94;58.94;102114.06;20989089;28;20063;-78
2022/01/27 23:07:06;;;;;;;2.67;1.33;;;;;;;14.88;59.14;102102.84;20988894;28;20076;-78
2022/01/27 23:17:19;;;;;;;3.58;1.08;;;;;;;14.81;58.93;102101.47;20988448;28;20544;-78
2022/01/27 23:27:24;;;;;;;2.55;0.90;;;;;;;14.50;58.72;102077.19;20988068;28;20401;-78
2022/01/27 23:37:57;;;;;;;2.65;0.80;;;;;;;14.55;59.04;102109.09;20987595;28;20050;-78
2022/01/27 23:58:05;;;;;;;2.28;1.20;;;;;;;14.40;58.84;102156.34;20986896;28;20270;-78
